Boat of Garten, United Kingdom
Current Conditions -  °F | °C
As of 7:50 AM on Thursday 23 Oct 2014 (Local Time) from EGPE Reporting Station
Few Clouds Few Clouds  
Wind Chill: 12°   Ceiling: Unl
Heat Index: 12°   Visibility: 6mi
Dew Point: 10°   Wind: 10mph
Humidity: 88%   Direction: 210°SSW
Pressure: 29.65"   Gusts: NA
Location:  57.25°N, 3.75°W
Report Text: EGPE 230650Z 21009KT 9999 FEW018 12/10 Q1004
Loading
Personal Weather Stations






























Interactive Weather Map
Tropical Storm Tracking
New forecast layout! Learn more

10-Day Weather Forecast

Advertisements
Track Severe Weather on mobile